createdAt,value
2022-11-25T00:00:33.033Z,95501.16
2022-11-25T00:03:35.039Z,95495.19
2022-11-25T00:06:36.733Z,95498.66
2022-11-25T00:09:38.372Z,95488.59
2022-11-25T00:12:41.631Z,95492.06
2022-11-25T00:15:44.333Z,95485.13
2022-11-25T00:18:46.633Z,95489.91
2022-11-25T00:21:48.255Z,95480.97
2022-11-25T00:24:50.061Z,95476.19
2022-11-25T00:27:53.673Z,95479.72
2022-11-25T00:30:55.341Z,95478.16
2022-11-25T00:33:57.095Z,95480.53
2022-11-25T00:36:58.751Z,95475.19
2022-11-25T00:40:00.402Z,95479.06
2022-11-25T00:43:03.521Z,95472.63
2022-11-25T00:46:05.408Z,95475.53
2022-11-25T00:49:07.189Z,95478.53
2022-11-25T00:52:09.350Z,95472.31
2022-11-25T00:55:11.171Z,95479.84
2022-11-25T00:58:14.203Z,95479.50
2022-11-25T01:01:16.409Z,95485.53
2022-11-25T01:04:18.137Z,95479.28
2022-11-25T01:07:19.834Z,95481.91
2022-11-25T01:10:21.561Z,95480.66
2022-11-25T01:13:24.584Z,95489.81
2022-11-25T01:16:26.448Z,95482.13
2022-11-25T01:19:28.263Z,95494.28
2022-11-25T01:22:29.969Z,95494.88
2022-11-25T01:25:31.602Z,95493.34
2022-11-25T01:28:34.732Z,95491.56
2022-11-25T01:31:37.184Z,95492.28
2022-11-25T01:34:39.067Z,95501.88
2022-11-25T01:37:40.739Z,95501.19
2022-11-25T01:40:42.413Z,95504.31
2022-11-25T01:43:58.882Z,95498.28
2022-11-25T01:47:05.449Z,95505.31
2022-11-25T01:50:10.612Z,95510.75
2022-11-25T01:53:14.015Z,95510.00
2022-11-25T01:56:16.229Z,95516.78
2022-11-25T01:59:18.301Z,95518.13
2022-11-25T02:02:21.763Z,95513.66
2022-11-25T02:05:30.927Z,95513.53
2022-11-25T02:08:35.350Z,95514.53
2022-11-25T02:11:40.050Z,95518.19
2022-11-25T02:14:42.774Z,95508.50
2022-11-25T02:17:47.141Z,95507.50
2022-11-25T02:20:49.036Z,95509.34
2022-11-25T02:23:52.745Z,95508.53
2022-11-25T02:26:55.876Z,95506.53
2022-11-25T02:29:57.609Z,95504.31
2022-11-25T02:33:00.393Z,95499.50
2022-11-25T02:36:03.052Z,95491.38
2022-11-25T02:39:04.946Z,95499.44
2022-11-25T02:42:08.224Z,95496.78
2022-11-25T02:45:12.083Z,95489.31
2022-11-25T02:48:13.945Z,95490.09
2022-11-25T02:51:18.235Z,95486.50
2022-11-25T02:54:19.971Z,95481.75
2022-11-25T02:57:23.007Z,95492.09
2022-11-25T03:00:24.769Z,95486.19
2022-11-25T03:03:26.435Z,95486.19
2022-11-25T03:06:28.241Z,95487.44
2022-11-25T03:09:30.061Z,95493.28
2022-11-25T03:12:33.107Z,95489.50
2022-11-25T03:15:35.300Z,95492.94
2022-11-25T03:18:36.954Z,95486.19
2022-11-25T03:21:38.724Z,95489.69
2022-11-25T03:24:40.417Z,95480.09
2022-11-25T03:27:43.845Z,95486.91
2022-11-25T03:30:45.639Z,95489.75
2022-11-25T03:33:47.337Z,95490.94
2022-11-25T03:36:49.081Z,95496.59
2022-11-25T03:39:50.864Z,95495.50
2022-11-25T03:42:53.935Z,95492.16
2022-11-25T03:45:55.705Z,95484.19
2022-11-25T03:48:57.602Z,95505.19
2022-11-25T03:51:59.293Z,95503.00
2022-11-25T03:55:01.053Z,95496.09
2022-11-25T03:58:04.127Z,95488.81
2022-11-25T04:01:05.806Z,95491.38
2022-11-25T04:04:07.549Z,95489.28
2022-11-25T04:07:09.256Z,95493.31
2022-11-25T04:10:11.336Z,95487.59
2022-11-25T04:13:14.580Z,95483.84
2022-11-25T04:16:22.470Z,95490.88
2022-11-25T04:19:24.358Z,95482.34
2022-11-25T04:22:26.051Z,95488.50
2022-11-25T04:25:27.915Z,95491.94
2022-11-25T04:28:30.983Z,95490.38
2022-11-25T04:31:32.891Z,95490.31
2022-11-25T04:34:34.864Z,95493.59
2022-11-25T04:37:36.712Z,95492.06
2022-11-25T04:40:39.456Z,95495.94
2022-11-25T04:43:42.517Z,95496.59
2022-11-25T04:46:44.334Z,95504.84
2022-11-25T04:49:46.026Z,95495.03
2022-11-25T04:52:47.799Z,95506.16
2022-11-25T04:55:49.452Z,95499.59
2022-11-25T04:58:52.764Z,95506.75
2022-11-25T05:01:54.436Z,95511.13
2022-11-25T05:04:56.861Z,95508.88
2022-11-25T05:07:58.486Z,95506.38
2022-11-25T05:11:00.946Z,95503.03
2022-11-25T05:14:04.023Z,95504.25
2022-11-25T05:17:06.096Z,95497.81
2022-11-25T05:20:08.434Z,95499.19
2022-11-25T05:23:10.308Z,95503.94
2022-11-25T05:26:12.034Z,95501.63
2022-11-25T05:29:15.057Z,95503.03
2022-11-25T05:32:16.748Z,95499.94
2022-11-25T05:35:18.503Z,95501.16
2022-11-25T05:38:20.178Z,95503.38
2022-11-25T05:41:21.870Z,95501.50
2022-11-25T05:44:25.063Z,95505.22
2022-11-25T05:47:26.801Z,95513.50
2022-11-25T05:50:28.488Z,95512.56
2022-11-25T05:53:30.382Z,95515.69
2022-11-25T05:56:32.136Z,95513.34
2022-11-25T05:59:35.233Z,95514.72
2022-11-25T06:02:36.970Z,95518.81
2022-11-25T06:05:38.749Z,95522.53
2022-11-25T06:08:40.503Z,95525.94
2022-11-25T06:11:42.270Z,95532.63
2022-11-25T06:14:45.359Z,95533.91
2022-11-25T06:17:47.039Z,95536.91
2022-11-25T06:20:55.941Z,95542.09
2022-11-25T06:23:57.590Z,95540.22
2022-11-25T06:26:59.283Z,95534.88
2022-11-25T06:30:02.304Z,95543.78
2022-11-25T06:33:03.952Z,95540.31
2022-11-25T06:36:06.657Z,95544.06
2022-11-25T06:39:08.563Z,95544.97
2022-11-25T06:42:11.118Z,95549.22
2022-11-25T06:45:14.559Z,95542.94
2022-11-25T06:48:16.222Z,95543.13
2022-11-25T06:51:17.955Z,95553.91
2022-11-25T06:54:19.653Z,95559.69
2022-11-25T06:57:21.291Z,95565.03
2022-11-25T07:00:24.525Z,95566.44
2022-11-25T07:03:26.209Z,95569.72
2022-11-25T07:06:28.077Z,95575.22
2022-11-25T07:09:29.793Z,95572.19
2022-11-25T07:12:31.470Z,95571.44
2022-11-25T07:15:35.491Z,95569.06
2022-11-25T07:18:37.822Z,95565.78
2022-11-25T07:21:39.773Z,95563.75
2022-11-25T07:24:41.453Z,95571.88
2022-11-25T07:27:43.127Z,95576.91
2022-11-25T07:34:10.216Z,95576.00
2022-11-25T07:37:11.883Z,95570.06
2022-11-25T07:40:13.704Z,95572.91
2022-11-25T07:43:15.351Z,95574.28
2022-11-25T07:46:24.982Z,95576.00
2022-11-25T07:49:28.342Z,95580.19
2022-11-25T07:52:29.958Z,95575.19
2022-11-25T07:55:31.824Z,95574.09
2022-11-25T07:58:33.460Z,95574.84
2022-11-25T08:01:36.581Z,95576.38
2022-11-25T08:04:38.230Z,95580.44
2022-11-25T08:07:39.994Z,95583.38
2022-11-25T08:10:41.643Z,95585.00
2022-11-25T08:13:43.820Z,95582.63
2022-11-25T08:16:46.868Z,95573.03
2022-11-25T08:19:48.578Z,95578.94
2022-11-25T08:22:50.333Z,95577.63
2022-11-25T08:25:52.036Z,95564.41
2022-11-25T08:28:54.100Z,95564.81
2022-11-25T08:31:57.164Z,95565.66
2022-11-25T08:34:58.994Z,95568.94
2022-11-25T08:38:00.689Z,95575.97
2022-11-25T08:41:02.796Z,95566.81
2022-11-25T08:44:05.429Z,95573.50
2022-11-25T08:47:08.573Z,95570.00
2022-11-25T08:50:10.841Z,95567.25
2022-11-25T08:53:12.523Z,95571.75
2022-11-25T08:56:14.581Z,95573.50
2022-11-25T08:59:16.423Z,95577.88
2022-11-25T09:02:19.593Z,95579.47
2022-11-25T09:05:21.482Z,95590.16
2022-11-25T09:08:23.372Z,95587.81
2022-11-25T09:11:25.451Z,95584.75
2022-11-25T09:14:28.081Z,95584.31
2022-11-25T09:17:31.199Z,95579.25
2022-11-25T09:20:33.312Z,95577.66
2022-11-25T09:23:35.120Z,95575.56
2022-11-25T09:26:36.800Z,95568.22
2022-11-25T09:29:38.929Z,95582.81
2022-11-25T09:32:42.479Z,95573.34
2022-11-25T09:35:44.506Z,95579.25
2022-11-25T09:38:46.756Z,95579.13
2022-11-25T09:41:54.387Z,95581.56
2022-11-25T09:45:03.753Z,95575.13
2022-11-25T09:48:20.254Z,95574.13
2022-11-25T09:51:24.130Z,95578.47
2022-11-25T09:54:29.828Z,95579.69
2022-11-25T09:57:40.948Z,95575.91
2022-11-25T10:00:44.637Z,95574.13
2022-11-25T10:03:49.344Z,95576.56
2022-11-25T10:06:55.666Z,95574.34
2022-11-25T10:09:59.519Z,95577.91
2022-11-25T10:13:02.977Z,95590.28
2022-11-25T10:16:06.981Z,95577.78
2022-11-25T10:19:13.621Z,95569.53
2022-11-25T10:22:21.601Z,95574.31
2022-11-25T10:25:24.106Z,95572.19
2022-11-25T10:28:30.036Z,95574.19
2022-11-25T10:31:35.062Z,95581.19
2022-11-25T10:34:39.503Z,95580.44
2022-11-25T10:37:44.957Z,95572.84
2022-11-25T10:40:48.176Z,95574.50
2022-11-25T10:43:50.232Z,95583.06
2022-11-25T10:47:15.582Z,95570.56
2022-11-25T10:50:20.115Z,95567.53
2022-11-25T10:53:25.187Z,95560.16
2022-11-25T10:56:26.874Z,95566.06
2022-11-25T10:59:29.604Z,95565.03
2022-11-25T11:02:37.506Z,95566.00
2022-11-25T11:05:46.689Z,95565.66
2022-11-25T11:08:50.008Z,95567.41
2022-11-25T11:11:51.685Z,95560.25
2022-11-25T11:14:53.987Z,95561.56
2022-11-25T11:17:56.407Z,95564.25
2022-11-25T11:20:59.368Z,95568.38
2022-11-25T11:24:02.983Z,95571.78
2022-11-25T11:27:06.794Z,95574.53
2022-11-25T11:30:09.973Z,95573.06
2022-11-25T11:33:29.929Z,95564.78
2022-11-25T11:36:40.113Z,95571.78
2022-11-25T11:39:50.544Z,95567.22
2022-11-25T11:43:07.054Z,95563.41
2022-11-25T11:46:18.493Z,95572.22
2022-11-25T11:49:30.750Z,95567.56
2022-11-25T11:52:39.837Z,95570.94
2022-11-25T11:56:11.868Z,95575.91
2022-11-25T11:59:20.638Z,95575.09
2022-11-25T12:02:35.421Z,95579.78
2022-11-25T12:05:37.142Z,95582.38
2022-11-25T12:08:45.629Z,95584.25
2022-11-25T12:11:52.306Z,95583.16
2022-11-25T12:15:00.809Z,95580.47
2022-11-25T12:18:05.032Z,95593.28
2022-11-25T12:21:08.671Z,95593.09
2022-11-25T12:24:14.324Z,95592.16
2022-11-25T12:27:20.897Z,95588.84
2022-11-25T12:30:23.178Z,95588.25
2022-11-25T12:33:28.063Z,95588.31
2022-11-25T12:36:32.899Z,95588.09
2022-11-25T12:39:39.608Z,95594.72
2022-11-25T12:42:43.868Z,95602.31
2022-11-25T12:45:46.835Z,95596.19
2022-11-25T12:48:48.767Z,95596.28
2022-11-25T12:52:08.399Z,95602.84
2022-11-25T12:55:12.290Z,95602.06
2022-11-25T12:58:36.569Z,95604.03
2022-11-25T13:01:56.060Z,95606.56
2022-11-25T13:05:33.235Z,95611.47
2022-11-25T13:08:50.542Z,95614.09
2022-11-25T13:12:03.710Z,95618.25
2022-11-25T13:15:36.803Z,95611.75
2022-11-25T13:18:41.285Z,95609.06
2022-11-25T13:21:55.822Z,95612.19
2022-11-25T13:24:58.076Z,95607.53
2022-11-25T13:28:00.710Z,95601.13
2022-11-25T13:31:20.515Z,95607.09
2022-11-25T13:34:26.801Z,95599.31
2022-11-25T13:37:36.633Z,95603.56
2022-11-25T13:40:38.943Z,95597.22
2022-11-25T13:43:51.651Z,95600.81
2022-11-25T13:46:55.243Z,95601.97
2022-11-25T13:49:58.682Z,95606.56
2022-11-25T13:53:01.664Z,95597.09
2022-11-25T13:56:12.681Z,95596.25
2022-11-25T13:59:34.008Z,95589.78
2022-11-25T14:02:38.457Z,95592.97
2022-11-25T14:05:52.219Z,95589.75
2022-11-25T14:08:55.605Z,95591.91
2022-11-25T14:12:21.031Z,95598.72
2022-11-25T14:15:40.309Z,95603.78
2022-11-25T14:22:28.749Z,95609.13
2022-11-25T14:25:33.881Z,95602.34
2022-11-25T14:28:40.061Z,95609.28
2022-11-25T14:31:45.069Z,95610.31
2022-11-25T14:34:50.051Z,95611.66
2022-11-25T14:37:53.014Z,95616.41
2022-11-25T14:40:58.708Z,95619.09
2022-11-25T14:44:04.796Z,95610.81
2022-11-25T14:47:06.444Z,95622.41
2022-11-25T14:50:33.744Z,95614.19
2022-11-25T14:53:43.014Z,95624.22
2022-11-25T14:56:48.469Z,95623.28
2022-11-25T14:59:50.656Z,95623.81
2022-11-25T15:02:53.644Z,95634.84
2022-11-25T15:06:01.471Z,95631.22
2022-11-25T15:09:03.872Z,95639.25
2022-11-25T15:12:08.119Z,95639.09
2022-11-25T15:15:14.711Z,95637.09
2022-11-25T15:18:18.782Z,95648.00
2022-11-25T15:21:23.037Z,95650.59
2022-11-25T15:24:25.961Z,95646.72
2022-11-25T15:27:28.548Z,95645.50
2022-11-25T15:30:30.301Z,95652.66
2022-11-25T15:33:32.012Z,95656.91
2022-11-25T15:36:35.077Z,95653.72
2022-11-25T15:39:36.959Z,95659.78
2022-11-25T15:42:42.267Z,95659.66
2022-11-25T15:45:45.285Z,95658.78
2022-11-25T15:48:48.390Z,95664.59
2022-11-25T15:51:53.864Z,95670.81
2022-11-25T15:54:58.050Z,95667.28
2022-11-25T15:58:03.523Z,95672.47
2022-11-25T16:01:05.977Z,95677.44
2022-11-25T16:04:12.357Z,95678.66
2022-11-25T16:07:22.868Z,95674.59
2022-11-25T16:10:25.854Z,95672.31
2022-11-25T16:13:31.408Z,95677.38
2022-11-25T16:16:33.212Z,95676.06
2022-11-25T16:19:38.877Z,95684.72
2022-11-25T16:22:41.921Z,95686.44
2022-11-25T16:25:48.251Z,95692.16
2022-11-25T16:28:51.404Z,95689.94
2022-11-25T16:31:53.333Z,95693.41
2022-11-25T16:34:55.722Z,95689.84
2022-11-25T16:37:58.900Z,95701.00
2022-11-25T16:41:08.274Z,95699.31
2022-11-25T16:44:16.362Z,95707.78
2022-11-25T16:47:19.359Z,95711.13
2022-11-25T16:50:21.253Z,95717.69
2022-11-25T16:53:24.352Z,95726.06
2022-11-25T16:56:27.969Z,95728.19
2022-11-25T16:59:30.922Z,95722.03
2022-11-25T17:02:33.067Z,95731.63
2022-11-25T17:05:34.739Z,95734.19
2022-11-25T17:08:38.173Z,95734.97
2022-11-25T17:11:46.311Z,95737.41
2022-11-25T17:14:49.122Z,95742.00
2022-11-25T17:17:51.085Z,95750.13
2022-11-25T17:20:53.638Z,95750.13
2022-11-25T17:24:00.025Z,95758.94
2022-11-25T17:27:07.252Z,95755.13
2022-11-25T17:30:16.167Z,95757.38
2022-11-25T17:33:19.118Z,95764.28
2022-11-25T17:36:21.517Z,95778.09
2022-11-25T17:39:24.627Z,95775.09
2022-11-25T17:42:28.114Z,95779.88
2022-11-25T17:45:30.024Z,95780.00
2022-11-25T17:48:32.219Z,95788.25
2022-11-25T17:51:35.610Z,95787.81
2022-11-25T17:54:40.050Z,95793.16
2022-11-25T17:57:42.889Z,95795.72
2022-11-25T18:00:45.353Z,95803.75
2022-11-25T18:03:47.639Z,95802.28
2022-11-25T18:06:50.533Z,95807.09
2022-11-25T18:09:56.354Z,95817.28
2022-11-25T18:12:58.538Z,95824.56
2022-11-25T18:16:00.876Z,95832.84
2022-11-25T18:19:03.309Z,95832.53
2022-11-25T18:22:09.272Z,95851.53
2022-11-25T18:25:16.001Z,95849.88
2022-11-25T18:28:19.931Z,95849.09
2022-11-25T18:31:22.747Z,95868.91
2022-11-25T18:34:25.496Z,95865.19
2022-11-25T18:37:27.658Z,95876.97
2022-11-25T18:40:31.138Z,95868.16
2022-11-25T18:43:34.783Z,95864.63
2022-11-25T18:46:38.238Z,95870.16
2022-11-25T18:49:41.317Z,95866.78
2022-11-25T18:52:43.638Z,95873.03
2022-11-25T18:55:48.558Z,95876.47
2022-11-25T18:58:51.210Z,95887.41
2022-11-25T19:01:53.654Z,95884.81
2022-11-25T19:04:56.323Z,95887.66
2022-11-25T19:07:58.861Z,95887.06
2022-11-25T19:11:02.346Z,95903.66
2022-11-25T19:14:07.297Z,95904.22
2022-11-25T19:17:18.218Z,95910.47
2022-11-25T19:20:23.196Z,95924.75
2022-11-25T19:23:25.756Z,95916.16
2022-11-25T19:26:31.153Z,95917.19
2022-11-25T19:29:41.820Z,95923.00
2022-11-25T19:32:45.913Z,95922.22
2022-11-25T19:35:48.401Z,95937.75
2022-11-25T19:38:52.561Z,95945.81
2022-11-25T19:41:56.529Z,95944.25
2022-11-25T19:44:59.239Z,95948.41
2022-11-25T19:48:03.502Z,95958.78
2022-11-25T19:51:05.838Z,95969.75
2022-11-25T19:54:10.791Z,95961.81
2022-11-25T19:57:16.444Z,95978.56
2022-11-25T20:00:20.921Z,95971.63
2022-11-25T20:03:24.893Z,95981.91
2022-11-25T20:06:30.326Z,95983.16
2022-11-25T20:09:32.417Z,95992.31
2022-11-25T20:12:36.386Z,95993.44
2022-11-25T20:15:42.797Z,95993.63
2022-11-25T20:18:45.954Z,95995.75
2022-11-25T20:21:48.785Z,95999.91
2022-11-25T20:24:51.575Z,96009.16
2022-11-25T20:27:55.945Z,96013.53
2022-11-25T20:30:58.873Z,96023.91
2022-11-25T20:34:01.260Z,96020.03
2022-11-25T20:37:04.029Z,96027.72
2022-11-25T20:40:13.507Z,96020.47
2022-11-25T20:43:25.402Z,96029.50
2022-11-25T20:46:28.642Z,96034.97
2022-11-25T20:49:31.131Z,96035.19
2022-11-25T20:52:34.718Z,96035.44
2022-11-25T20:55:36.765Z,96035.53
2022-11-25T20:58:40.472Z,96039.34
2022-11-25T21:01:42.739Z,96046.94
2022-11-25T21:04:45.101Z,96057.31
2022-11-25T21:07:49.941Z,96061.00
2022-11-25T21:10:53.653Z,96061.22
2022-11-25T21:13:56.864Z,96052.84
2022-11-25T21:16:59.082Z,96054.63
2022-11-25T21:20:01.181Z,96048.81
2022-11-25T21:23:03.373Z,96066.59
2022-11-25T21:26:06.369Z,96072.81
2022-11-25T21:29:14.180Z,96077.88
2022-11-25T21:32:19.468Z,96073.97
2022-11-25T21:35:22.040Z,96082.22
2022-11-25T21:38:25.092Z,96085.56
2022-11-25T21:41:26.860Z,96086.91
2022-11-25T21:44:32.029Z,96095.84
2022-11-25T21:47:33.724Z,96104.00
2022-11-25T21:50:35.445Z,96103.75
2022-11-25T21:53:37.576Z,96113.59
2022-11-25T21:56:39.468Z,96115.28
2022-11-25T21:59:43.028Z,96115.59
2022-11-25T22:02:44.757Z,96117.47
2022-11-25T22:05:46.935Z,96129.00
2022-11-25T22:08:48.867Z,96131.03
2022-11-25T22:11:50.790Z,96136.25
2022-11-25T22:14:53.894Z,96146.06
2022-11-25T22:17:56.967Z,96149.22
2022-11-25T22:20:58.725Z,96144.19
2022-11-25T22:24:00.382Z,96157.72
2022-11-25T22:27:02.075Z,96161.53
2022-11-25T22:30:13.699Z,96164.41
2022-11-25T22:33:15.406Z,96166.44
2022-11-25T22:36:24.678Z,96172.22
2022-11-25T22:39:26.694Z,96180.72
2022-11-25T22:42:29.756Z,96178.38
2022-11-25T22:45:33.820Z,96183.97
2022-11-25T22:48:36.320Z,96187.84
2022-11-25T22:51:38.030Z,96186.72
2022-11-25T22:54:39.948Z,96193.25
2022-11-25T22:57:41.777Z,96201.94
2022-11-25T23:00:45.899Z,96196.09
2022-11-25T23:03:47.567Z,96203.38
2022-11-25T23:06:49.276Z,96218.25
2022-11-25T23:09:51.307Z,96220.13
2022-11-25T23:12:52.967Z,96211.75
2022-11-25T23:15:57.337Z,96217.91
2022-11-25T23:18:59.312Z,96237.69
2022-11-25T23:22:00.993Z,96234.44
2022-11-25T23:25:02.667Z,96239.91
2022-11-25T23:28:04.518Z,96231.31
2022-11-25T23:31:11.788Z,96244.63
2022-11-25T23:34:13.457Z,96237.31
2022-11-25T23:37:15.429Z,96240.66
2022-11-25T23:40:18.387Z,96242.94
2022-11-25T23:43:20.433Z,96244.81
2022-11-25T23:46:24.971Z,96243.25
2022-11-25T23:49:28.619Z,96244.94
2022-11-25T23:52:30.237Z,96249.41
2022-11-25T23:55:34.201Z,96240.91
2022-11-25T23:58:35.875Z,96243.00
